Time;durP1;ratioP1;P1;durP2;ratioP2;P2;SDS_P1;SDS_P2;PMS_P1;PMS_P2;Temp;Humidity;BMP_temperature;BMP_pressure;BME280_temperature;BME280_humidity;BME280_pressure;Samples;Min_cycle;Max_cycle;Signal;HPM_P1;HPM_P2
2021/12/28 00:00:26;;;;;;;;;;;9.70;99.90;;;;;;5089979;28;19963;-71
2021/12/28 00:02:52;;;;;;;;;;;9.70;99.90;;;;;;5092763;28;19908;-71
2021/12/28 00:05:18;;;;;;;;;;;9.70;99.90;;;;;;5091790;28;19915;-71
2021/12/28 00:07:44;;;;;;;;;;;9.70;99.90;;;;;;5089783;28;19919;-71
2021/12/28 00:10:10;;;;;;;;;;;9.70;99.90;;;;;;5087479;28;19908;-71
2021/12/28 00:12:38;;;;;;;;;;;9.70;99.90;;;;;;5089083;28;19919;-71
2021/12/28 00:15:30;;;;;;;;;;;9.80;99.90;;;;;;5088805;28;19934;-71
2021/12/28 00:18:04;;;;;;;;;;;9.80;99.90;;;;;;5086857;28;20345;-71
2021/12/28 00:20:32;;;;;;;;;;;9.70;99.90;;;;;;5087351;28;19914;-72
2021/12/28 00:22:58;;;;;;;;;;;9.70;99.90;;;;;;5086145;28;20458;-72
2021/12/28 00:25:24;;;;;;;;;;;9.70;99.90;;;;;;5088949;28;19914;-72
2021/12/28 00:27:50;;;;;;;;;;;9.70;99.90;;;;;;5089522;28;20059;-71
2021/12/28 00:30:16;;;;;;;;;;;9.70;99.90;;;;;;5081081;28;19908;-69
2021/12/28 00:32:42;;;;;;;;;;;9.70;99.90;;;;;;5077326;28;19915;-72
2021/12/28 00:35:08;;;;;;;;;;;9.60;99.90;;;;;;5084751;28;20015;-72
2021/12/28 00:37:33;;;;;;;;;;;9.60;99.90;;;;;;5087377;28;20006;-71
2021/12/28 00:39:59;;;;;;;;;;;9.70;99.90;;;;;;5098249;28;19975;-70
2021/12/28 00:42:25;;;;;;;;;;;9.60;99.90;;;;;;5098056;28;19980;-69
2021/12/28 00:44:50;;;;;;;;;;;9.70;99.90;;;;;;5093100;28;20322;-72
2021/12/28 00:47:16;;;;;;;;;;;9.80;99.90;;;;;;5097732;28;19995;-72
2021/12/28 00:49:42;;;;;;;;;;;10.00;99.90;;;;;;5097293;28;19931;-72
2021/12/28 00:52:07;;;;;;;;;;;10.00;99.90;;;;;;5096612;28;20306;-71
2021/12/28 00:54:33;;;;;;;;;;;10.00;99.90;;;;;;5089933;28;20519;-71
2021/12/28 00:57:01;;;;;;;;;;;10.00;99.90;;;;;;5090683;28;19990;-71
2021/12/28 00:59:27;;;;;;;;;;;10.00;99.90;;;;;;5090587;28;19924;-70
2021/12/28 01:01:52;;;;;;;;;;;9.80;99.90;;;;;;5082318;28;19965;-72
2021/12/28 01:04:18;;;;;;;;;;;9.80;99.90;;;;;;5087863;28;19908;-72
2021/12/28 01:06:44;;;;;;;;;;;9.80;99.90;;;;;;5088736;28;20294;-70
2021/12/28 01:09:09;;;;;;;;;;;9.70;99.90;;;;;;5091264;28;20615;-70
2021/12/28 01:11:35;;;;;;;;;;;9.80;99.90;;;;;;5090368;28;19908;-71
2021/12/28 01:14:00;;;;;;;;;;;9.80;99.90;;;;;;5100916;28;19919;-72
2021/12/28 01:16:27;;;;;;;;;;;9.70;99.90;;;;;;5090673;28;19953;-71
2021/12/28 01:18:53;;;;;;;;;;;9.70;99.90;;;;;;5096051;28;19923;-71
2021/12/28 01:21:19;;;;;;;;;;;9.60;99.90;;;;;;5104224;28;19918;-70
2021/12/28 01:23:44;;;;;;;;;;;9.70;99.90;;;;;;5100665;28;20324;-71
2021/12/28 01:26:10;;;;;;;;;;;9.60;99.90;;;;;;5092840;28;19908;-70
2021/12/28 01:28:36;;;;;;;;;;;9.70;99.90;;;;;;5092347;28;19925;-70
2021/12/28 01:31:02;;;;;;;;;;;9.70;99.90;;;;;;5096177;28;19911;-71
2021/12/28 01:33:27;;;;;;;;;;;9.70;99.90;;;;;;5096532;28;19919;-70
2021/12/28 01:35:54;;;;;;;;;;;9.60;99.90;;;;;;5085098;28;20343;-71
2021/12/28 01:38:19;;;;;;;;;;;9.60;99.90;;;;;;5099636;28;20287;-71
2021/12/28 01:40:45;;;;;;;;;;;9.60;99.90;;;;;;5098644;28;19909;-70
2021/12/28 01:43:12;;;;;;;;;;;9.60;99.90;;;;;;5095531;28;19958;-70
2021/12/28 01:45:57;;;;;;;;;;;9.70;99.90;;;;;;5097102;28;20305;-69
2021/12/28 01:48:30;;;;;;;;;;;9.70;99.90;;;;;;5102456;28;19911;-70
2021/12/28 01:50:57;;;;;;;;;;;9.80;99.90;;;;;;5098818;28;20364;-71
2021/12/28 01:53:24;;;;;;;;;;;9.80;99.90;;;;;;5103583;28;19966;-71
2021/12/28 01:55:51;;;;;;;;;;;9.80;99.90;;;;;;5092661;28;20277;-70
2021/12/28 01:58:17;;;;;;;;;;;9.80;99.90;;;;;;5092798;28;19942;-72
2021/12/28 02:00:44;;;;;;;;;;;9.70;99.90;;;;;;5087432;28;20366;-70
2021/12/28 02:03:11;;;;;;;;;;;9.80;99.90;;;;;;5090859;28;19970;-70
2021/12/28 02:05:37;;;;;;;;;;;9.80;99.90;;;;;;5078879;28;20261;-70
2021/12/28 02:08:04;;;;;;;;;;;9.80;99.90;;;;;;5100127;28;19930;-70
2021/12/28 02:10:29;;;;;;;;;;;9.70;99.90;;;;;;5102806;28;19915;-70
2021/12/28 02:12:55;;;;;;;;;;;9.70;99.90;;;;;;5100175;28;20201;-70
2021/12/28 02:15:20;;;;;;;;;;;9.60;99.90;;;;;;5094134;28;20486;-71
2021/12/28 02:17:46;;;;;;;;;;;9.70;99.90;;;;;;5103368;28;19911;-70
2021/12/28 02:20:14;;;;;;;;;;;9.70;99.90;;;;;;5098118;28;19908;-70
2021/12/28 02:22:40;;;;;;;;;;;9.60;99.90;;;;;;5097706;28;19914;-70
2021/12/28 02:25:06;;;;;;;;;;;9.60;99.90;;;;;;5092591;28;20311;-70
2021/12/28 02:27:31;;;;;;;;;;;9.70;99.90;;;;;;5091675;28;20265;-70
2021/12/28 02:29:57;;;;;;;;;;;9.60;99.90;;;;;;5089304;28;19907;-70
2021/12/28 02:32:27;;;;;;;;;;;9.50;99.90;;;;;;5095396;28;20357;-71
2021/12/28 02:34:53;;;;;;;;;;;9.50;99.90;;;;;;5089247;28;19912;-72
2021/12/28 02:37:18;;;;;;;;;;;9.50;99.90;;;;;;5088364;28;19908;-70
2021/12/28 02:39:45;;;;;;;;;;;9.60;99.90;;;;;;5095627;28;19908;-70
2021/12/28 02:42:10;;;;;;;;;;;9.60;99.90;;;;;;5098572;28;20337;-70
2021/12/28 02:44:36;;;;;;;;;;;9.60;99.90;;;;;;5093689;28;19908;-70
2021/12/28 02:47:01;;;;;;;;;;;9.60;99.90;;;;;;5091065;28;19912;-71
2021/12/28 02:49:27;;;;;;;;;;;9.50;99.90;;;;;;5107186;28;19939;-71
2021/12/28 02:51:52;;;;;;;;;;;9.50;99.90;;;;;;5104676;28;19915;-71
2021/12/28 02:54:20;;;;;;;;;;;9.70;99.90;;;;;;5102355;28;20388;-71
2021/12/28 02:56:46;;;;;;;;;;;9.70;99.90;;;;;;5100713;28;19908;-71
2021/12/28 02:59:11;;;;;;;;;;;9.70;99.90;;;;;;5082370;28;20315;-69
2021/12/28 03:01:40;;;;;;;;;;;9.80;99.90;;;;;;5097368;28;19916;-70
2021/12/28 03:04:07;;;;;;;;;;;9.90;99.90;;;;;;5079731;28;19920;-70
2021/12/28 03:06:34;;;;;;;;;;;9.80;99.90;;;;;;5091883;28;19968;-70
2021/12/28 03:09:01;;;;;;;;;;;9.80;99.90;;;;;;5079254;28;19915;-70
2021/12/28 03:11:28;;;;;;;;;;;9.80;99.90;;;;;;5082082;28;19936;-71
2021/12/28 03:13:55;;;;;;;;;;;9.80;99.90;;;;;;5093562;28;20357;-71
2021/12/28 03:16:22;;;;;;;;;;;9.80;99.90;;;;;;5085236;28;19922;-72
2021/12/28 03:18:47;;;;;;;;;;;9.80;99.90;;;;;;5096440;28;19915;-73
2021/12/28 03:21:14;;;;;;;;;;;9.80;99.90;;;;;;5102209;28;19911;-71
2021/12/28 03:23:40;;;;;;;;;;;9.80;99.90;;;;;;5092053;28;19908;-71
2021/12/28 03:26:06;;;;;;;;;;;9.80;99.90;;;;;;5086108;28;19916;-72
2021/12/28 03:28:33;;;;;;;;;;;9.70;99.90;;;;;;5091085;28;19912;-71
2021/12/28 03:31:00;;;;;;;;;;;9.90;99.90;;;;;;5099681;28;20308;-70
2021/12/28 03:33:28;;;;;;;;;;;9.90;99.90;;;;;;5084574;28;19958;-70
2021/12/28 03:35:53;;;;;;;;;;;9.90;99.90;;;;;;5094566;28;20282;-70
2021/12/28 03:38:19;;;;;;;;;;;9.90;99.90;;;;;;5094762;28;19915;-71
2021/12/28 03:40:45;;;;;;;;;;;10.00;99.90;;;;;;5100433;28;19908;-71
2021/12/28 03:43:11;;;;;;;;;;;10.00;99.90;;;;;;5101140;28;20448;-72
2021/12/28 03:45:37;;;;;;;;;;;9.90;99.90;;;;;;5095799;28;19907;-70
2021/12/28 03:48:04;;;;;;;;;;;9.90;99.90;;;;;;5096939;28;19908;-70
2021/12/28 03:50:30;;;;;;;;;;;9.90;99.90;;;;;;5095037;28;19908;-69
2021/12/28 03:52:56;;;;;;;;;;;9.80;99.90;;;;;;5101104;28;20382;-71
2021/12/28 03:55:22;;;;;;;;;;;9.80;99.90;;;;;;5094802;28;20059;-70
2021/12/28 03:57:49;;;;;;;;;;;9.80;99.90;;;;;;5095423;28;19923;-69
2021/12/28 04:00:15;;;;;;;;;;;9.80;99.90;;;;;;5094065;28;19919;-71
2021/12/28 04:02:41;;;;;;;;;;;9.80;99.90;;;;;;5095414;28;19908;-70
2021/12/28 04:05:07;;;;;;;;;;;9.70;99.90;;;;;;5099243;28;19930;-69
2021/12/28 04:07:33;;;;;;;;;;;9.70;99.90;;;;;;5090015;28;19918;-72
2021/12/28 04:10:02;;;;;;;;;;;9.60;99.90;;;;;;5095190;28;19908;-71
2021/12/28 04:12:28;;;;;;;;;;;9.70;99.90;;;;;;5085210;28;19923;-71
2021/12/28 04:14:54;;;;;;;;;;;9.60;99.90;;;;;;5085035;28;20423;-73
2021/12/28 04:17:19;;;;;;;;;;;9.50;99.90;;;;;;5101594;28;19916;-70
2021/12/28 04:19:45;;;;;;;;;;;9.50;99.90;;;;;;5098457;28;20365;-71
2021/12/28 04:22:11;;;;;;;;;;;9.50;99.90;;;;;;5096784;28;19908;-71
2021/12/28 04:24:36;;;;;;;;;;;9.50;99.90;;;;;;5096748;28;19994;-70
2021/12/28 04:27:02;;;;;;;;;;;9.50;99.90;;;;;;5086196;28;19919;-71
2021/12/28 04:29:28;;;;;;;;;;;9.50;99.90;;;;;;5092505;28;19907;-71
2021/12/28 04:31:53;;;;;;;;;;;9.50;99.90;;;;;;5090345;28;19919;-71
2021/12/28 04:34:19;;;;;;;;;;;9.40;99.90;;;;;;5098988;28;20404;-71
2021/12/28 04:36:45;;;;;;;;;;;9.50;99.90;;;;;;5095620;28;19962;-71
2021/12/28 04:39:10;;;;;;;;;;;9.50;99.90;;;;;;5097969;28;19915;-71
2021/12/28 04:41:36;;;;;;;;;;;9.60;99.90;;;;;;5096208;28;22066;-71
2021/12/28 04:44:02;;;;;;;;;;;9.60;99.90;;;;;;5101963;28;19935;-70
2021/12/28 04:46:28;;;;;;;;;;;9.60;99.90;;;;;;5096076;28;19935;-70
2021/12/28 04:48:54;;;;;;;;;;;9.60;99.90;;;;;;5097474;28;20562;-70
2021/12/28 04:51:20;;;;;;;;;;;9.70;99.90;;;;;;5097020;28;19919;-70
2021/12/28 04:53:45;;;;;;;;;;;9.80;99.90;;;;;;5101081;28;19911;-70
2021/12/28 04:56:11;;;;;;;;;;;9.80;99.90;;;;;;5105788;28;19926;-72
2021/12/28 04:58:37;;;;;;;;;;;9.80;99.90;;;;;;5101624;28;20289;-71
2021/12/28 05:01:02;;;;;;;;;;;9.80;99.90;;;;;;5106786;28;19915;-71
2021/12/28 05:03:28;;;;;;;;;;;9.90;99.90;;;;;;5096547;28;19908;-71
2021/12/28 05:05:53;;;;;;;;;;;9.90;99.90;;;;;;5093760;28;19915;-70
2021/12/28 05:08:20;;;;;;;;;;;9.90;99.90;;;;;;5098646;28;19922;-71
2021/12/28 05:10:47;;;;;;;;;;;9.80;99.90;;;;;;5098350;28;20294;-71
2021/12/28 05:13:12;;;;;;;;;;;9.80;99.90;;;;;;5103758;28;19965;-71
2021/12/28 05:15:38;;;;;;;;;;;9.80;99.90;;;;;;5088529;28;21091;-70
2021/12/28 05:18:04;;;;;;;;;;;9.80;99.90;;;;;;5084760;28;19912;-73
2021/12/28 05:20:30;;;;;;;;;;;9.70;99.90;;;;;;5098500;28;19943;-70
2021/12/28 05:22:56;;;;;;;;;;;9.70;99.90;;;;;;5107251;28;20385;-70
2021/12/28 05:25:21;;;;;;;;;;;9.70;99.90;;;;;;5100928;28;19908;-69
2021/12/28 05:27:47;;;;;;;;;;;9.70;99.90;;;;;;5091012;28;19914;-71
2021/12/28 05:30:13;;;;;;;;;;;9.70;99.90;;;;;;5105330;28;19912;-70
2021/12/28 05:32:39;;;;;;;;;;;9.70;99.90;;;;;;5103256;28;19922;-70
2021/12/28 05:35:05;;;;;;;;;;;9.60;99.90;;;;;;5091244;28;19908;-70
2021/12/28 05:37:31;;;;;;;;;;;9.60;99.90;;;;;;5087140;28;19907;-70
2021/12/28 05:39:59;;;;;;;;;;;9.60;99.90;;;;;;5098240;28;20447;-71
2021/12/28 05:42:25;;;;;;;;;;;9.70;99.90;;;;;;5100123;28;19907;-71
2021/12/28 05:44:51;;;;;;;;;;;9.70;99.90;;;;;;5096416;28;19908;-70
2021/12/28 05:47:16;;;;;;;;;;;9.80;99.90;;;;;;5096729;28;20328;-71
2021/12/28 05:49:42;;;;;;;;;;;9.80;99.90;;;;;;5104762;28;19907;-72
2021/12/28 05:52:07;;;;;;;;;;;9.90;99.90;;;;;;5091827;28;20010;-71
2021/12/28 05:54:33;;;;;;;;;;;9.90;99.90;;;;;;5092963;28;19908;-70
2021/12/28 05:56:59;;;;;;;;;;;9.90;99.90;;;;;;5091337;28;19919;-73
2021/12/28 05:59:24;;;;;;;;;;;9.90;99.90;;;;;;5097040;28;19943;-71
2021/12/28 06:01:50;;;;;;;;;;;9.90;99.90;;;;;;5103335;28;19908;-70
2021/12/28 06:04:16;;;;;;;;;;;9.80;99.90;;;;;;5095462;28;20373;-71
2021/12/28 06:06:42;;;;;;;;;;;9.80;99.90;;;;;;5096773;28;19915;-70
2021/12/28 06:09:08;;;;;;;;;;;9.80;99.90;;;;;;5096251;28;19914;-70
2021/12/28 06:11:33;;;;;;;;;;;9.80;99.90;;;;;;5097078;28;20309;-71
2021/12/28 06:13:59;;;;;;;;;;;9.70;99.90;;;;;;5095059;28;19912;-70
2021/12/28 06:16:24;;;;;;;;;;;9.70;99.90;;;;;;5097340;28;19929;-71
2021/12/28 06:18:50;;;;;;;;;;;9.80;99.90;;;;;;5100477;28;20017;-72
2021/12/28 06:21:16;;;;;;;;;;;9.90;99.90;;;;;;5097937;28;19904;-71
2021/12/28 06:23:42;;;;;;;;;;;9.90;99.90;;;;;;5081558;28;20011;-73
2021/12/28 06:26:08;;;;;;;;;;;9.80;99.90;;;;;;5094744;28;19908;-71
2021/12/28 06:28:33;;;;;;;;;;;9.90;99.90;;;;;;5091589;28;19966;-71
2021/12/28 06:30:59;;;;;;;;;;;9.90;99.90;;;;;;5094608;28;19973;-70
2021/12/28 06:33:25;;;;;;;;;;;10.00;99.90;;;;;;5098867;28;20395;-70
2021/12/28 06:35:51;;;;;;;;;;;9.90;99.90;;;;;;5094758;28;20523;-70
2021/12/28 06:38:17;;;;;;;;;;;10.00;99.90;;;;;;5095196;28;19930;-71
2021/12/28 06:40:43;;;;;;;;;;;10.00;99.90;;;;;;5097802;28;20026;-71
2021/12/28 06:43:09;;;;;;;;;;;10.00;99.90;;;;;;5096194;28;20362;-71
2021/12/28 06:45:34;;;;;;;;;;;10.00;99.90;;;;;;5099202;28;20350;-70
2021/12/28 06:48:00;;;;;;;;;;;10.10;99.90;;;;;;5098820;28;19908;-71
2021/12/28 06:50:26;;;;;;;;;;;10.10;99.90;;;;;;5093976;28;19977;-70
2021/12/28 06:52:51;;;;;;;;;;;10.10;99.90;;;;;;5097457;28;19911;-70
2021/12/28 06:55:17;;;;;;;;;;;10.10;99.90;;;;;;5099455;28;19930;-70
2021/12/28 06:57:43;;;;;;;;;;;10.10;99.90;;;;;;5100713;28;20191;-70
2021/12/28 07:00:11;;;;;;;;;;;10.10;99.90;;;;;;5094243;28;19916;-70
2021/12/28 07:02:36;;;;;;;;;;;10.10;99.90;;;;;;5098357;28;19908;-71
2021/12/28 07:05:03;;;;;;;;;;;10.10;99.90;;;;;;5099215;28;19907;-71
2021/12/28 07:07:29;;;;;;;;;;;10.10;99.90;;;;;;5091620;28;19979;-70
2021/12/28 07:09:54;;;;;;;;;;;10.10;99.90;;;;;;5102110;28;20033;-71
2021/12/28 07:12:20;;;;;;;;;;;10.10;99.90;;;;;;5094296;28;19951;-71
2021/12/28 07:14:45;;;;;;;;;;;10.10;99.90;;;;;;5099211;28;19916;-71
2021/12/28 07:17:11;;;;;;;;;;;10.10;99.90;;;;;;5096436;28;19908;-68
2021/12/28 07:19:36;;;;;;;;;;;10.10;99.90;;;;;;5091028;28;19908;-73
2021/12/28 07:22:02;;;;;;;;;;;10.10;99.90;;;;;;5097026;28;19939;-72
2021/12/28 07:24:28;;;;;;;;;;;10.20;99.90;;;;;;5099595;28;20092;-72
2021/12/28 07:26:53;;;;;;;;;;;10.20;99.90;;;;;;5088113;28;19923;-72
2021/12/28 07:29:20;;;;;;;;;;;10.30;99.90;;;;;;5094004;28;19907;-72
2021/12/28 07:31:45;;;;;;;;;;;10.30;99.90;;;;;;5100076;28;19936;-73
2021/12/28 07:34:11;;;;;;;;;;;10.40;99.90;;;;;;5100409;28;19977;-72
2021/12/28 07:36:37;;;;;;;;;;;10.40;99.90;;;;;;5088741;28;19955;-73
2021/12/28 07:39:03;;;;;;;;;;;10.30;99.90;;;;;;5101972;28;20503;-72
2021/12/28 07:41:29;;;;;;;;;;;10.40;99.90;;;;;;5098589;28;19908;-68
2021/12/28 07:43:54;;;;;;;;;;;10.40;99.90;;;;;;5080176;28;19919;-69
2021/12/28 07:46:21;;;;;;;;;;;10.50;99.90;;;;;;5093448;28;20373;-68
2021/12/28 07:48:47;;;;;;;;;;;10.50;99.90;;;;;;5085294;28;19957;-69
2021/12/28 07:51:13;;;;;;;;;;;10.60;99.90;;;;;;5098282;28;19908;-65
2021/12/28 07:53:38;;;;;;;;;;;10.60;99.90;;;;;;5093807;28;19922;-65
2021/12/28 07:56:04;;;;;;;;;;;10.60;99.90;;;;;;5098253;28;19908;-66
2021/12/28 07:58:29;;;;;;;;;;;10.50;99.90;;;;;;5097379;28;19915;-66
2021/12/28 08:00:56;;;;;;;;;;;10.60;99.90;;;;;;5091697;28;20392;-65
2021/12/28 08:03:22;;;;;;;;;;;10.60;99.90;;;;;;5097955;28;20489;-66
2021/12/28 08:05:48;;;;;;;;;;;10.70;99.90;;;;;;5098649;28;19904;-65
2021/12/28 08:08:14;;;;;;;;;;;10.70;99.90;;;;;;5099239;28;20006;-67
2021/12/28 08:10:40;;;;;;;;;;;10.80;99.90;;;;;;5101019;28;19930;-66
2021/12/28 08:13:05;;;;;;;;;;;10.90;99.90;;;;;;5094782;28;19933;-66
2021/12/28 08:15:31;;;;;;;;;;;10.90;99.90;;;;;;5107485;28;19927;-68
2021/12/28 08:17:56;;;;;;;;;;;11.00;99.90;;;;;;5091478;28;19910;-66
2021/12/28 08:20:22;;;;;;;;;;;11.00;99.90;;;;;;5094730;28;20034;-67
2021/12/28 08:22:48;;;;;;;;;;;11.00;99.90;;;;;;5098072;28;19953;-66
2021/12/28 08:25:16;;;;;;;;;;;11.10;99.90;;;;;;5099958;28;20322;-68
2021/12/28 08:27:42;;;;;;;;;;;11.10;99.90;;;;;;5092209;28;20010;-67
2021/12/28 08:30:08;;;;;;;;;;;11.20;99.90;;;;;;5099184;28;20341;-67
2021/12/28 08:32:34;;;;;;;;;;;11.20;99.90;;;;;;5096896;28;19915;-65
2021/12/28 08:35:00;;;;;;;;;;;11.20;99.90;;;;;;5097514;28;19980;-66
2021/12/28 08:37:27;;;;;;;;;;;11.20;99.90;;;;;;5091011;28;19952;-68
2021/12/28 08:39:52;;;;;;;;;;;11.20;99.90;;;;;;5093117;28;19912;-66
2021/12/28 08:42:19;;;;;;;;;;;11.20;99.90;;;;;;5099078;28;19953;-67
2021/12/28 08:44:45;;;;;;;;;;;11.30;99.90;;;;;;5096448;28;19908;-67
2021/12/28 08:47:10;;;;;;;;;;;11.30;99.90;;;;;;5099154;28;20382;-67
2021/12/28 08:49:36;;;;;;;;;;;11.30;99.90;;;;;;5105294;28;19914;-67
2021/12/28 08:52:02;;;;;;;;;;;11.30;99.90;;;;;;5086118;28;19916;-67
2021/12/28 08:54:27;;;;;;;;;;;11.40;99.90;;;;;;5099992;28;19918;-65
2021/12/28 08:56:53;;;;;;;;;;;11.50;99.90;;;;;;5087283;28;19916;-68
2021/12/28 08:59:19;;;;;;;;;;;11.50;99.90;;;;;;5097654;28;19990;-66
2021/12/28 09:01:45;;;;;;;;;;;11.60;99.90;;;;;;5080760;28;19947;-65
2021/12/28 09:04:10;;;;;;;;;;;11.60;99.90;;;;;;5095387;28;19908;-66
2021/12/28 09:06:36;;;;;;;;;;;11.60;99.90;;;;;;5086244;28;20345;-66
2021/12/28 09:09:02;;;;;;;;;;;11.60;99.90;;;;;;5095867;28;19914;-66
2021/12/28 09:11:27;;;;;;;;;;;11.60;99.90;;;;;;5090507;28;19943;-66
2021/12/28 09:13:53;;;;;;;;;;;11.60;99.90;;;;;;5089591;28;19920;-66
2021/12/28 09:16:19;;;;;;;;;;;11.60;99.90;;;;;;5089344;28;19908;-66
2021/12/28 09:18:45;;;;;;;;;;;11.50;99.90;;;;;;5088502;28;20003;-66
2021/12/28 09:21:10;;;;;;;;;;;11.50;99.90;;;;;;5096865;28;19999;-67
2021/12/28 09:23:38;;;;;;;;;;;11.50;99.90;;;;;;5109106;28;19939;-66
2021/12/28 09:26:04;;;;;;;;;;;11.60;99.90;;;;;;5091806;28;20293;-66
2021/12/28 09:28:30;;;;;;;;;;;11.50;99.90;;;;;;5080364;28;19919;-66
2021/12/28 09:30:56;;;;;;;;;;;11.60;99.90;;;;;;5078660;28;19904;-66
2021/12/28 09:33:24;;;;;;;;;;;11.60;99.90;;;;;;5082410;28;19919;-65
2021/12/28 09:35:51;;;;;;;;;;;11.70;99.90;;;;;;5073855;28;19916;-66
2021/12/28 09:38:17;;;;;;;;;;;11.80;99.90;;;;;;5086288;28;19919;-66
2021/12/28 09:40:43;;;;;;;;;;;12.00;99.90;;;;;;5099453;28;19911;-65
2021/12/28 09:43:09;;;;;;;;;;;12.10;99.90;;;;;;5088004;28;19908;-66
2021/12/28 09:45:35;;;;;;;;;;;12.30;99.90;;;;;;5103438;28;20365;-64
2021/12/28 09:48:01;;;;;;;;;;;12.30;99.90;;;;;;5093888;28;19915;-65
2021/12/28 09:50:26;;;;;;;;;;;12.50;99.90;;;;;;5094691;28;19987;-65
2021/12/28 09:52:52;;;;;;;;;;;12.50;99.90;;;;;;5106364;28;19917;-65
2021/12/28 09:55:20;;;;;;;;;;;12.50;99.90;;;;;;5095196;28;20400;-65
2021/12/28 09:57:46;;;;;;;;;;;12.50;99.90;;;;;;5100876;28;20002;-65
2021/12/28 10:00:12;;;;;;;;;;;12.50;99.90;;;;;;5085882;28;20413;-65
2021/12/28 10:02:38;;;;;;;;;;;12.60;99.90;;;;;;5087869;28;20337;-66
2021/12/28 10:05:06;;;;;;;;;;;12.60;99.90;;;;;;5091338;28;19912;-66
2021/12/28 10:07:33;;;;;;;;;;;12.60;99.90;;;;;;5107352;28;19908;-66
2021/12/28 10:09:59;;;;;;;;;;;12.60;99.90;;;;;;5088548;28;19905;-66
2021/12/28 10:12:35;;;;;;;;;;;12.60;99.90;;;;;;5080865;28;19961;-66
2021/12/28 10:15:03;;;;;;;;;;;12.50;99.90;;;;;;5093705;28;19943;-66
2021/12/28 10:17:30;;;;;;;;;;;12.50;99.90;;;;;;5088095;28;19953;-66
2021/12/28 10:19:56;;;;;;;;;;;12.30;99.90;;;;;;5093304;28;20157;-66
2021/12/28 10:22:36;;;;;;;;;;;12.30;99.90;;;;;;5093666;28;19908;-66
2021/12/28 10:25:09;;;;;;;;;;;12.30;99.90;;;;;;5107372;28;19965;-67
2021/12/28 10:27:35;;;;;;;;;;;12.30;99.90;;;;;;5105743;28;19912;-65
2021/12/28 10:30:09;;;;;;;;;;;12.30;99.90;;;;;;5107857;28;19904;-65
2021/12/28 10:32:35;;;;;;;;;;;12.30;99.90;;;;;;5105683;28;19920;-66
2021/12/28 10:35:03;;;;;;;;;;;12.30;99.90;;;;;;5090238;28;19904;-66
2021/12/28 10:37:31;;;;;;;;;;;12.20;99.90;;;;;;5089364;28;19908;-66
2021/12/28 10:39:58;;;;;;;;;;;12.10;99.90;;;;;;5092585;28;19904;-65
2021/12/28 10:42:36;;;;;;;;;;;12.10;99.90;;;;;;5094743;28;19919;-66
2021/12/28 10:45:03;;;;;;;;;;;11.90;99.90;;;;;;5094201;28;19953;-66
2021/12/28 10:47:31;;;;;;;;;;;12.00;99.90;;;;;;5093816;28;20551;-66
2021/12/28 10:50:01;;;;;;;;;;;12.00;99.90;;;;;;5092084;28;19951;-65
2021/12/28 10:52:36;;;;;;;;;;;12.10;99.90;;;;;;5092752;28;19911;-65
2021/12/28 10:55:17;;;;;;;;;;;12.30;99.90;;;;;;5106032;28;19935;-68
2021/12/28 10:57:42;;;;;;;;;;;12.50;99.90;;;;;;5111557;28;19975;-65
2021/12/28 11:00:28;;;;;;;;;;;12.40;99.90;;;;;;5113549;28;19947;-66
2021/12/28 11:03:12;;;;;;;;;;;12.30;99.90;;;;;;5072540;28;19999;-66
2021/12/28 11:05:38;;;;;;;;;;;12.40;99.90;;;;;;5075069;28;19915;-66
2021/12/28 11:08:07;;;;;;;;;;;12.60;99.90;;;;;;5103251;28;19907;-66
2021/12/28 11:10:33;;;;;;;;;;;12.70;99.90;;;;;;5092610;28;20039;-66
2021/12/28 11:12:59;;;;;;;;;;;12.70;99.90;;;;;;5091576;28;19911;-66
2021/12/28 11:15:25;;;;;;;;;;;12.70;99.90;;;;;;5074474;28;19974;-66
2021/12/28 11:17:51;;;;;;;;;;;12.60;99.90;;;;;;5087751;28;19908;-65
2021/12/28 11:20:27;;;;;;;;;;;12.60;99.90;;;;;;5091362;28;20366;-65
2021/12/28 11:23:12;;;;;;;;;;;12.60;99.90;;;;;;5091765;28;19926;-65
2021/12/28 11:25:38;;;;;;;;;;;12.40;99.90;;;;;;5093638;28;19915;-66
2021/12/28 11:28:16;;;;;;;;;;;12.20;99.90;;;;;;5097248;28;19996;-66
2021/12/28 11:30:57;;;;;;;;;;;12.10;99.90;;;;;;5095444;28;20003;-65
2021/12/28 11:33:23;;;;;;;;;;;11.90;99.90;;;;;;5092885;28;19920;-66
2021/12/28 11:35:48;;;;;;;;;;;11.70;99.90;;;;;;5092451;28;19904;-67
2021/12/28 11:38:14;;;;;;;;;;;11.50;99.90;;;;;;5086517;28;19908;-66
2021/12/28 11:40:40;;;;;;;;;;;11.50;99.90;;;;;;5092334;28;19904;-66
2021/12/28 11:43:06;;;;;;;;;;;11.50;99.90;;;;;;5086570;28;20014;-66
2021/12/28 11:45:31;;;;;;;;;;;11.50;99.90;;;;;;5088870;28;20078;-67
2021/12/28 11:47:58;;;;;;;;;;;11.50;99.90;;;;;;5088423;28;19958;-67
2021/12/28 11:50:24;;;;;;;;;;;11.50;99.90;;;;;;5098921;28;19911;-67
2021/12/28 11:52:52;;;;;;;;;;;11.50;99.90;;;;;;5089029;28;20393;-66
2021/12/28 11:55:18;;;;;;;;;;;11.50;99.90;;;;;;5076491;28;19910;-67
2021/12/28 11:57:51;;;;;;;;;;;11.50;99.90;;;;;;5097798;28;20354;-68
2021/12/28 12:00:19;;;;;;;;;;;11.60;99.90;;;;;;5096697;28;19912;-67
2021/12/28 12:02:48;;;;;;;;;;;11.70;99.90;;;;;;5109985;28;19904;-68
2021/12/28 12:05:17;;;;;;;;;;;11.70;99.90;;;;;;5100053;28;19973;-69
2021/12/28 12:07:43;;;;;;;;;;;11.70;99.90;;;;;;5092884;28;19965;-67
2021/12/28 12:10:30;;;;;;;;;;;11.80;99.90;;;;;;5102420;28;20349;-66
2021/12/28 12:12:56;;;;;;;;;;;11.70;99.90;;;;;;5089934;28;20330;-67
2021/12/28 12:15:23;;;;;;;;;;;11.80;99.90;;;;;;5094709;28;19915;-67
2021/12/28 12:17:49;;;;;;;;;;;11.80;99.90;;;;;;5092088;28;19908;-65
2021/12/28 12:20:22;;;;;;;;;;;11.80;99.90;;;;;;5095549;28;19973;-65
2021/12/28 12:22:48;;;;;;;;;;;11.80;99.90;;;;;;5102849;28;20309;-66
2021/12/28 12:25:15;;;;;;;;;;;11.60;99.90;;;;;;5098518;28;20007;-66
2021/12/28 12:27:54;;;;;;;;;;;11.40;99.90;;;;;;5102477;28;20019;-66
2021/12/28 12:30:20;;;;;;;;;;;11.40;99.90;;;;;;5098375;28;19916;-66
2021/12/28 12:32:58;;;;;;;;;;;11.40;99.90;;;;;;5100759;28;20304;-66
2021/12/28 12:35:32;;;;;;;;;;;11.40;99.90;;;;;;5094275;28;19915;-66
2021/12/28 12:38:02;;;;;;;;;;;11.50;99.90;;;;;;5098304;28;20075;-66
2021/12/28 12:40:47;;;;;;;;;;;11.50;99.90;;;;;;5092109;28;19908;-67
2021/12/28 12:43:13;;;;;;;;;;;11.40;99.90;;;;;;5073024;28;19919;-65
2021/12/28 12:46:03;;;;;;;;;;;11.30;99.90;;;;;;5102099;28;19992;-66
2021/12/28 12:48:40;;;;;;;;;;;11.30;99.90;;;;;;5088475;28;20002;-67
2021/12/28 12:51:21;;;;;;;;;;;11.30;99.90;;;;;;5092376;28;19994;-67
2021/12/28 12:53:50;;;;;;;;;;;11.30;99.90;;;;;;5098205;28;19912;-67
2021/12/28 12:56:17;;;;;;;;;;;11.30;99.90;;;;;;5096573;28;19960;-66
2021/12/28 12:58:46;;;;;;;;;;;11.30;99.90;;;;;;5092409;28;20498;-66
2021/12/28 13:01:27;;;;;;;;;;;11.40;99.90;;;;;;5099389;28;20433;-65
2021/12/28 13:04:00;;;;;;;;;;;11.40;99.90;;;;;;5101337;28;19915;-66
2021/12/28 13:06:40;;;;;;;;;;;11.30;99.90;;;;;;5081750;28;20060;-66
2021/12/28 13:09:07;;;;;;;;;;;11.30;99.90;;;;;;5088338;28;19915;-66
2021/12/28 13:11:33;;;;;;;;;;;11.30;99.90;;;;;;5099160;28;19919;-66
2021/12/28 13:13:59;;;;;;;;;;;11.30;99.90;;;;;;5101076;28;20380;-66
2021/12/28 13:16:24;;;;;;;;;;;11.40;99.90;;;;;;5091413;28;19957;-66
2021/12/28 13:18:50;;;;;;;;;;;11.40;99.90;;;;;;5099020;28;20362;-68
2021/12/28 13:21:19;;;;;;;;;;;11.40;99.90;;;;;;5095940;28;19915;-67
2021/12/28 13:24:03;;;;;;;;;;;11.50;99.90;;;;;;5099621;28;19908;-66
2021/12/28 13:26:40;;;;;;;;;;;11.60;99.90;;;;;;5092009;28;20281;-66
2021/12/28 13:29:05;;;;;;;;;;;11.60;99.90;;;;;;5080908;28;19915;-66
2021/12/28 13:31:31;;;;;;;;;;;11.70;99.90;;;;;;5077949;28;19908;-66
2021/12/28 13:33:57;;;;;;;;;;;11.70;99.90;;;;;;5082292;28;19912;-66
2021/12/28 13:36:23;;;;;;;;;;;11.70;99.90;;;;;;5091827;28;19908;-67
2021/12/28 13:38:49;;;;;;;;;;;11.70;99.90;;;;;;5094138;28;19972;-65
2021/12/28 13:41:14;;;;;;;;;;;11.80;99.90;;;;;;5091849;28;20006;-67
2021/12/28 13:43:40;;;;;;;;;;;11.80;99.90;;;;;;5096685;28;20013;-66
2021/12/28 13:46:07;;;;;;;;;;;11.80;99.90;;;;;;5084704;28;20003;-66
2021/12/28 13:48:34;;;;;;;;;;;11.80;99.90;;;;;;5079683;28;19980;-66
2021/12/28 13:51:01;;;;;;;;;;;11.90;99.90;;;;;;5084770;28;19904;-67
2021/12/28 13:53:28;;;;;;;;;;;11.90;99.90;;;;;;5079719;28;20002;-67
2021/12/28 13:56:01;;;;;;;;;;;11.90;99.90;;;;;;5084540;28;19968;-67
2021/12/28 13:58:31;;;;;;;;;;;11.90;99.90;;;;;;5086476;28;19908;-68
2021/12/28 14:01:05;;;;;;;;;;;11.90;99.90;;;;;;5102936;28;19911;-66
2021/12/28 14:03:30;;;;;;;;;;;11.90;99.90;;;;;;5093813;28;19965;-66
2021/12/28 14:05:56;;;;;;;;;;;11.90;99.90;;;;;;5093622;28;20361;-66
2021/12/28 14:08:22;;;;;;;;;;;11.90;99.90;;;;;;5093848;28;19904;-67
2021/12/28 14:10:50;;;;;;;;;;;11.90;99.90;;;;;;5086705;28;20345;-66
2021/12/28 14:13:19;;;;;;;;;;;12.00;99.90;;;;;;5072735;28;20331;-66
2021/12/28 14:16:04;;;;;;;;;;;11.90;99.90;;;;;;5101809;28;19919;-66
2021/12/28 14:18:33;;;;;;;;;;;11.80;99.90;;;;;;5099776;28;19998;-66
2021/12/28 14:21:19;;;;;;;;;;;11.80;99.90;;;;;;5084971;28;20278;-66
2021/12/28 14:23:53;;;;;;;;;;;11.80;99.90;;;;;;5101229;27;20006;-66